<?xml version="1.0" encoding="UTF-8" standalone="no" ?>
<gpx xmlns="http://www.topografix.com/GPX/1/1" xmlns:xsi="http://www.w3.org/2001/XMLSchema-instance" xsi:schemaLocation="http://www.topografix.com/GPX/1/1 http://www.topografix.com/GPX/1/1/gpx.xsd" version="1.1" creator="VisuGPX - https://www.visugpx.com">
  <metadata>
    <name>13709085-Prémanon</name>
  </metadata>
  <trk>
    <name><![CDATA[13709085-Prémanon]]></name>
    <trkseg>
      <trkpt lat="46.46291" lon="6.02048">
        <ele>1128</ele>
        <time>2021-09-18T08:26:02Z</time>
      </trkpt>
      <trkpt lat="46.46287" lon="6.02156">
        <ele>1126</ele>
        <time>2021-09-18T08:27:41Z</time>
      </trkpt>
      <trkpt lat="46.46268" lon="6.02229">
        <ele>1126</ele>
        <time>2021-09-18T08:28:53Z</time>
      </trkpt>
      <trkpt lat="46.46325" lon="6.02218">
        <ele>1114</ele>
        <time>2021-09-18T08:30:10Z</time>
      </trkpt>
      <trkpt lat="46.46419" lon="6.0218">
        <ele>1101</ele>
        <time>2021-09-18T08:32:20Z</time>
      </trkpt>
      <trkpt lat="46.465" lon="6.02134">
        <ele>1095</ele>
        <time>2021-09-18T08:34:16Z</time>
      </trkpt>
      <trkpt lat="46.46478" lon="6.02181">
        <ele>1094</ele>
        <time>2021-09-18T08:35:08Z</time>
      </trkpt>
      <trkpt lat="46.46486" lon="6.02218">
        <ele>1090</ele>
        <time>2021-09-18T08:35:44Z</time>
      </trkpt>
      <trkpt lat="46.46518" lon="6.02199">
        <ele>1088</ele>
        <time>2021-09-18T08:36:30Z</time>
      </trkpt>
      <trkpt lat="46.46571" lon="6.02164">
        <ele>1084</ele>
        <time>2021-09-18T08:37:48Z</time>
      </trkpt>
      <trkpt lat="46.46657" lon="6.02149">
        <ele>1079</ele>
        <time>2021-09-18T08:39:43Z</time>
      </trkpt>
      <trkpt lat="46.46721" lon="6.02196">
        <ele>1079</ele>
        <time>2021-09-18T08:41:19Z</time>
      </trkpt>
      <trkpt lat="46.46736" lon="6.0225">
        <ele>1085</ele>
        <time>2021-09-18T08:42:13Z</time>
      </trkpt>
      <trkpt lat="46.46785" lon="6.02264">
        <ele>1078</ele>
        <time>2021-09-18T08:43:19Z</time>
      </trkpt>
      <trkpt lat="46.46745" lon="6.02367">
        <ele>1085</ele>
        <time>2021-09-18T08:45:08Z</time>
      </trkpt>
      <trkpt lat="46.46718" lon="6.0249">
        <ele>1088</ele>
        <time>2021-09-18T08:47:07Z</time>
      </trkpt>
      <trkpt lat="46.46765" lon="6.02561">
        <ele>1083</ele>
        <time>2021-09-18T08:48:37Z</time>
      </trkpt>
      <trkpt lat="46.46749" lon="6.026">
        <ele>1084</ele>
        <time>2021-09-18T08:49:19Z</time>
      </trkpt>
      <trkpt lat="46.4676" lon="6.02629">
        <ele>1083</ele>
        <time>2021-09-18T08:49:49Z</time>
      </trkpt>
      <trkpt lat="46.46802" lon="6.02657">
        <ele>1080</ele>
        <time>2021-09-18T08:50:51Z</time>
      </trkpt>
      <trkpt lat="46.46809" lon="6.02696">
        <ele>1079</ele>
        <time>2021-09-18T08:51:28Z</time>
      </trkpt>
      <trkpt lat="46.46764" lon="6.02757">
        <ele>1084</ele>
        <time>2021-09-18T08:52:50Z</time>
      </trkpt>
      <trkpt lat="46.46775" lon="6.02786">
        <ele>1081</ele>
        <time>2021-09-18T08:53:21Z</time>
      </trkpt>
      <trkpt lat="46.46827" lon="6.02795">
        <ele>1075</ele>
        <time>2021-09-18T08:54:31Z</time>
      </trkpt>
      <trkpt lat="46.46893" lon="6.02805">
        <ele>1067</ele>
        <time>2021-09-18T08:55:59Z</time>
      </trkpt>
      <trkpt lat="46.46934" lon="6.02821">
        <ele>1063</ele>
        <time>2021-09-18T08:56:56Z</time>
      </trkpt>
      <trkpt lat="46.4696" lon="6.02829">
        <ele>1060</ele>
        <time>2021-09-18T08:57:31Z</time>
      </trkpt>
      <trkpt lat="46.46969" lon="6.02848">
        <ele>1060</ele>
        <time>2021-09-18T08:57:52Z</time>
      </trkpt>
      <trkpt lat="46.4702" lon="6.02855">
        <ele>1057</ele>
        <time>2021-09-18T08:59:01Z</time>
      </trkpt>
      <trkpt lat="46.47052" lon="6.02874">
        <ele>1055</ele>
        <time>2021-09-18T08:59:47Z</time>
      </trkpt>
      <trkpt lat="46.47085" lon="6.02871">
        <ele>1053</ele>
        <time>2021-09-18T09:00:31Z</time>
      </trkpt>
      <trkpt lat="46.47116" lon="6.02838">
        <ele>1050</ele>
        <time>2021-09-18T09:01:22Z</time>
      </trkpt>
      <trkpt lat="46.47223" lon="6.02857">
        <ele>1044</ele>
        <time>2021-09-18T09:03:46Z</time>
      </trkpt>
      <trkpt lat="46.47306" lon="6.02821">
        <ele>1039</ele>
        <time>2021-09-18T09:05:42Z</time>
      </trkpt>
      <trkpt lat="46.4734" lon="6.02788">
        <ele>1037</ele>
        <time>2021-09-18T09:06:36Z</time>
      </trkpt>
      <trkpt lat="46.47376" lon="6.02776">
        <ele>1034</ele>
        <time>2021-09-18T09:07:26Z</time>
      </trkpt>
      <trkpt lat="46.47466" lon="6.02839">
        <ele>1029</ele>
        <time>2021-09-18T09:09:39Z</time>
      </trkpt>
      <trkpt lat="46.47525" lon="6.02862">
        <ele>1023</ele>
        <time>2021-09-18T09:11:00Z</time>
      </trkpt>
      <trkpt lat="46.47574" lon="6.02849">
        <ele>1015</ele>
        <time>2021-09-18T09:12:07Z</time>
      </trkpt>
      <trkpt lat="46.47687" lon="6.02914">
        <ele>1002</ele>
        <time>2021-09-18T09:14:49Z</time>
      </trkpt>
      <trkpt lat="46.47764" lon="6.02971">
        <ele>999</ele>
        <time>2021-09-18T09:16:44Z</time>
      </trkpt>
      <trkpt lat="46.47854" lon="6.03048">
        <ele>992</ele>
        <time>2021-09-18T09:19:04Z</time>
      </trkpt>
      <trkpt lat="46.47909" lon="6.03062">
        <ele>985</ele>
        <time>2021-09-18T09:20:18Z</time>
      </trkpt>
      <trkpt lat="46.47939" lon="6.03031">
        <ele>982</ele>
        <time>2021-09-18T09:21:08Z</time>
      </trkpt>
      <trkpt lat="46.47963" lon="6.03009">
        <ele>980</ele>
        <time>2021-09-18T09:21:45Z</time>
      </trkpt>
      <trkpt lat="46.48001" lon="6.03017">
        <ele>975</ele>
        <time>2021-09-18T09:22:37Z</time>
      </trkpt>
      <trkpt lat="46.48053" lon="6.0301">
        <ele>970</ele>
        <time>2021-09-18T09:23:46Z</time>
      </trkpt>
      <trkpt lat="46.48109" lon="6.03047">
        <ele>966</ele>
        <time>2021-09-18T09:25:08Z</time>
      </trkpt>
      <trkpt lat="46.48133" lon="6.03032">
        <ele>961</ele>
        <time>2021-09-18T09:25:43Z</time>
      </trkpt>
      <trkpt lat="46.48111" lon="6.02981">
        <ele>957</ele>
        <time>2021-09-18T09:26:39Z</time>
      </trkpt>
      <trkpt lat="46.48124" lon="6.02966">
        <ele>952</ele>
        <time>2021-09-18T09:27:01Z</time>
      </trkpt>
      <trkpt lat="46.48151" lon="6.02993">
        <ele>953</ele>
        <time>2021-09-18T09:27:44Z</time>
      </trkpt>
      <trkpt lat="46.48152" lon="6.02979">
        <ele>950</ele>
        <time>2021-09-18T09:27:57Z</time>
      </trkpt>
      <trkpt lat="46.48168" lon="6.02956">
        <ele>942</ele>
        <time>2021-09-18T09:28:27Z</time>
      </trkpt>
      <trkpt lat="46.48147" lon="6.02973">
        <ele>949</ele>
        <time>2021-09-18T09:29:00Z</time>
      </trkpt>
      <trkpt lat="46.48156" lon="6.02995">
        <ele>953</ele>
        <time>2021-09-18T09:29:23Z</time>
      </trkpt>
      <trkpt lat="46.48118" lon="6.02963">
        <ele>952</ele>
        <time>2021-09-18T09:30:22Z</time>
      </trkpt>
      <trkpt lat="46.48117" lon="6.0298">
        <ele>956</ele>
        <time>2021-09-18T09:30:37Z</time>
      </trkpt>
      <trkpt lat="46.48133" lon="6.03024">
        <ele>960</ele>
        <time>2021-09-18T09:31:23Z</time>
      </trkpt>
      <trkpt lat="46.48115" lon="6.03047">
        <ele>965</ele>
        <time>2021-09-18T09:31:55Z</time>
      </trkpt>
      <trkpt lat="46.4806" lon="6.03013">
        <ele>970</ele>
        <time>2021-09-18T09:33:15Z</time>
      </trkpt>
      <trkpt lat="46.48019" lon="6.03012">
        <ele>974</ele>
        <time>2021-09-18T09:34:10Z</time>
      </trkpt>
      <trkpt lat="46.4801" lon="6.0304">
        <ele>975</ele>
        <time>2021-09-18T09:34:38Z</time>
      </trkpt>
      <trkpt lat="46.48002" lon="6.03086">
        <ele>977</ele>
        <time>2021-09-18T09:35:22Z</time>
      </trkpt>
      <trkpt lat="46.48012" lon="6.03099">
        <ele>976</ele>
        <time>2021-09-18T09:35:39Z</time>
      </trkpt>
      <trkpt lat="46.47992" lon="6.03132">
        <ele>978</ele>
        <time>2021-09-18T09:36:20Z</time>
      </trkpt>
      <trkpt lat="46.47979" lon="6.03178">
        <ele>978</ele>
        <time>2021-09-18T09:37:06Z</time>
      </trkpt>
      <trkpt lat="46.47934" lon="6.03214">
        <ele>981</ele>
        <time>2021-09-18T09:38:14Z</time>
      </trkpt>
      <trkpt lat="46.47894" lon="6.03241">
        <ele>982</ele>
        <time>2021-09-18T09:39:13Z</time>
      </trkpt>
      <trkpt lat="46.47868" lon="6.03298">
        <ele>983</ele>
        <time>2021-09-18T09:40:16Z</time>
      </trkpt>
      <trkpt lat="46.4783" lon="6.03325">
        <ele>983</ele>
        <time>2021-09-18T09:41:12Z</time>
      </trkpt>
      <trkpt lat="46.47812" lon="6.03325">
        <ele>984</ele>
        <time>2021-09-18T09:41:36Z</time>
      </trkpt>
      <trkpt lat="46.47818" lon="6.03366">
        <ele>983</ele>
        <time>2021-09-18T09:42:15Z</time>
      </trkpt>
      <trkpt lat="46.47837" lon="6.03406">
        <ele>981</ele>
        <time>2021-09-18T09:42:59Z</time>
      </trkpt>
      <trkpt lat="46.47859" lon="6.03499">
        <ele>974</ele>
        <time>2021-09-18T09:44:30Z</time>
      </trkpt>
      <trkpt lat="46.47869" lon="6.03567">
        <ele>965</ele>
        <time>2021-09-18T09:45:34Z</time>
      </trkpt>
      <trkpt lat="46.47871" lon="6.03607">
        <ele>959</ele>
        <time>2021-09-18T09:46:11Z</time>
      </trkpt>
      <trkpt lat="46.4784" lon="6.03618">
        <ele>966</ele>
        <time>2021-09-18T09:46:53Z</time>
      </trkpt>
      <trkpt lat="46.47814" lon="6.03645">
        <ele>970</ele>
        <time>2021-09-18T09:47:36Z</time>
      </trkpt>
      <trkpt lat="46.47802" lon="6.03677">
        <ele>972</ele>
        <time>2021-09-18T09:48:09Z</time>
      </trkpt>
      <trkpt lat="46.47839" lon="6.03713">
        <ele>959</ele>
        <time>2021-09-18T09:49:09Z</time>
      </trkpt>
      <trkpt lat="46.47864" lon="6.03776">
        <ele>943</ele>
        <time>2021-09-18T09:50:16Z</time>
      </trkpt>
      <trkpt lat="46.47882" lon="6.03879">
        <ele>926</ele>
        <time>2021-09-18T09:51:53Z</time>
      </trkpt>
      <trkpt lat="46.47866" lon="6.03948">
        <ele>926</ele>
        <time>2021-09-18T09:53:00Z</time>
      </trkpt>
      <trkpt lat="46.47855" lon="6.03991">
        <ele>923</ele>
        <time>2021-09-18T09:53:42Z</time>
      </trkpt>
      <trkpt lat="46.47838" lon="6.04046">
        <ele>918</ele>
        <time>2021-09-18T09:54:38Z</time>
      </trkpt>
      <trkpt lat="46.47842" lon="6.04082">
        <ele>909</ele>
        <time>2021-09-18T09:55:11Z</time>
      </trkpt>
      <trkpt lat="46.47832" lon="6.04114">
        <ele>907</ele>
        <time>2021-09-18T09:55:43Z</time>
      </trkpt>
      <trkpt lat="46.47802" lon="6.04146">
        <ele>908</ele>
        <time>2021-09-18T09:56:33Z</time>
      </trkpt>
      <trkpt lat="46.47811" lon="6.04162">
        <ele>904</ele>
        <time>2021-09-18T09:56:52Z</time>
      </trkpt>
      <trkpt lat="46.47815" lon="6.04177">
        <ele>905</ele>
        <time>2021-09-18T09:57:07Z</time>
      </trkpt>
      <trkpt lat="46.4788" lon="6.04179">
        <ele>907</ele>
        <time>2021-09-18T09:58:34Z</time>
      </trkpt>
      <trkpt lat="46.47893" lon="6.04192">
        <ele>911</ele>
        <time>2021-09-18T09:58:55Z</time>
      </trkpt>
      <trkpt lat="46.47897" lon="6.04229">
        <ele>919</ele>
        <time>2021-09-18T09:59:29Z</time>
      </trkpt>
      <trkpt lat="46.47869" lon="6.04253">
        <ele>923</ele>
        <time>2021-09-18T10:00:13Z</time>
      </trkpt>
      <trkpt lat="46.4784" lon="6.04311">
        <ele>941</ele>
        <time>2021-09-18T10:01:18Z</time>
      </trkpt>
      <trkpt lat="46.47806" lon="6.04334">
        <ele>948</ele>
        <time>2021-09-18T10:02:08Z</time>
      </trkpt>
      <trkpt lat="46.47769" lon="6.04337">
        <ele>947</ele>
        <time>2021-09-18T10:02:58Z</time>
      </trkpt>
      <trkpt lat="46.47762" lon="6.04368">
        <ele>954</ele>
        <time>2021-09-18T10:03:28Z</time>
      </trkpt>
      <trkpt lat="46.47774" lon="6.044">
        <ele>963</ele>
        <time>2021-09-18T10:04:01Z</time>
      </trkpt>
      <trkpt lat="46.47762" lon="6.04425">
        <ele>969</ele>
        <time>2021-09-18T10:04:29Z</time>
      </trkpt>
      <trkpt lat="46.47704" lon="6.04451">
        <ele>972</ele>
        <time>2021-09-18T10:05:50Z</time>
      </trkpt>
      <trkpt lat="46.47658" lon="6.04488">
        <ele>981</ele>
        <time>2021-09-18T10:07:01Z</time>
      </trkpt>
      <trkpt lat="46.47616" lon="6.04518">
        <ele>987</ele>
        <time>2021-09-18T10:08:03Z</time>
      </trkpt>
      <trkpt lat="46.47591" lon="6.04559">
        <ele>994</ele>
        <time>2021-09-18T10:08:53Z</time>
      </trkpt>
      <trkpt lat="46.47566" lon="6.0458">
        <ele>996</ele>
        <time>2021-09-18T10:09:32Z</time>
      </trkpt>
      <trkpt lat="46.47535" lon="6.04569">
        <ele>993</ele>
        <time>2021-09-18T10:10:14Z</time>
      </trkpt>
      <trkpt lat="46.47511" lon="6.04622">
        <ele>998</ele>
        <time>2021-09-18T10:11:13Z</time>
      </trkpt>
      <trkpt lat="46.47491" lon="6.04683">
        <ele>1004</ele>
        <time>2021-09-18T10:12:15Z</time>
      </trkpt>
      <trkpt lat="46.47461" lon="6.04742">
        <ele>1009</ele>
        <time>2021-09-18T10:13:22Z</time>
      </trkpt>
      <trkpt lat="46.47409" lon="6.04801">
        <ele>1017</ele>
        <time>2021-09-18T10:14:50Z</time>
      </trkpt>
      <trkpt lat="46.47383" lon="6.04861">
        <ele>1029</ele>
        <time>2021-09-18T10:15:55Z</time>
      </trkpt>
      <trkpt lat="46.47274" lon="6.04923">
        <ele>1030</ele>
        <time>2021-09-18T10:18:32Z</time>
      </trkpt>
      <trkpt lat="46.47131" lon="6.04891">
        <ele>1017</ele>
        <time>2021-09-18T10:21:45Z</time>
      </trkpt>
      <trkpt lat="46.47103" lon="6.04912">
        <ele>1019</ele>
        <time>2021-09-18T10:22:27Z</time>
      </trkpt>
      <trkpt lat="46.47075" lon="6.04901">
        <ele>1015</ele>
        <time>2021-09-18T10:23:06Z</time>
      </trkpt>
      <trkpt lat="46.47034" lon="6.04942">
        <ele>1023</ele>
        <time>2021-09-18T10:24:12Z</time>
      </trkpt>
      <trkpt lat="46.46966" lon="6.04979">
        <ele>1027</ele>
        <time>2021-09-18T10:25:49Z</time>
      </trkpt>
      <trkpt lat="46.46912" lon="6.05041">
        <ele>1036</ele>
        <time>2021-09-18T10:27:21Z</time>
      </trkpt>
      <trkpt lat="46.46847" lon="6.05103">
        <ele>1044</ele>
        <time>2021-09-18T10:29:05Z</time>
      </trkpt>
      <trkpt lat="46.46806" lon="6.05135">
        <ele>1047</ele>
        <time>2021-09-18T10:30:07Z</time>
      </trkpt>
      <trkpt lat="46.46757" lon="6.0515">
        <ele>1047</ele>
        <time>2021-09-18T10:31:13Z</time>
      </trkpt>
      <trkpt lat="46.46733" lon="6.05122">
        <ele>1039</ele>
        <time>2021-09-18T10:31:55Z</time>
      </trkpt>
      <trkpt lat="46.46629" lon="6.05152">
        <ele>1030</ele>
        <time>2021-09-18T10:34:16Z</time>
      </trkpt>
      <trkpt lat="46.46544" lon="6.05195">
        <ele>1026</ele>
        <time>2021-09-18T10:36:16Z</time>
      </trkpt>
      <trkpt lat="46.4651" lon="6.05172">
        <ele>1023</ele>
        <time>2021-09-18T10:37:06Z</time>
      </trkpt>
      <trkpt lat="46.46507" lon="6.05084">
        <ele>1020</ele>
        <time>2021-09-18T10:38:27Z</time>
      </trkpt>
      <trkpt lat="46.46485" lon="6.05054">
        <ele>1024</ele>
        <time>2021-09-18T10:39:07Z</time>
      </trkpt>
      <trkpt lat="46.46454" lon="6.05024">
        <ele>1031</ele>
        <time>2021-09-18T10:39:57Z</time>
      </trkpt>
      <trkpt lat="46.46525" lon="6.04934">
        <ele>1035</ele>
        <time>2021-09-18T10:42:03Z</time>
      </trkpt>
      <trkpt lat="46.46629" lon="6.04811">
        <ele>1051</ele>
        <time>2021-09-18T10:45:02Z</time>
      </trkpt>
      <trkpt lat="46.46697" lon="6.04717">
        <ele>1049</ele>
        <time>2021-09-18T10:47:07Z</time>
      </trkpt>
      <trkpt lat="46.46735" lon="6.04625">
        <ele>1052</ele>
        <time>2021-09-18T10:48:46Z</time>
      </trkpt>
      <trkpt lat="46.46773" lon="6.04537">
        <ele>1059</ele>
        <time>2021-09-18T10:50:21Z</time>
      </trkpt>
      <trkpt lat="46.46807" lon="6.04464">
        <ele>1066</ele>
        <time>2021-09-18T10:51:42Z</time>
      </trkpt>
      <trkpt lat="46.46799" lon="6.04442">
        <ele>1068</ele>
        <time>2021-09-18T10:52:05Z</time>
      </trkpt>
      <trkpt lat="46.46725" lon="6.04449">
        <ele>1077</ele>
        <time>2021-09-18T10:53:44Z</time>
      </trkpt>
      <trkpt lat="46.46677" lon="6.04427">
        <ele>1087</ele>
        <time>2021-09-18T10:54:51Z</time>
      </trkpt>
      <trkpt lat="46.46692" lon="6.04371">
        <ele>1087</ele>
        <time>2021-09-18T10:55:47Z</time>
      </trkpt>
      <trkpt lat="46.46707" lon="6.04279">
        <ele>1089</ele>
        <time>2021-09-18T10:57:13Z</time>
      </trkpt>
      <trkpt lat="46.46683" lon="6.04176">
        <ele>1096</ele>
        <time>2021-09-18T10:58:53Z</time>
      </trkpt>
      <trkpt lat="46.46648" lon="6.04116">
        <ele>1098</ele>
        <time>2021-09-18T11:00:06Z</time>
      </trkpt>
      <trkpt lat="46.46596" lon="6.04054">
        <ele>1098</ele>
        <time>2021-09-18T11:01:35Z</time>
      </trkpt>
      <trkpt lat="46.4655" lon="6.03989">
        <ele>1097</ele>
        <time>2021-09-18T11:03:01Z</time>
      </trkpt>
      <trkpt lat="46.46543" lon="6.0388">
        <ele>1097</ele>
        <time>2021-09-18T11:04:42Z</time>
      </trkpt>
      <trkpt lat="46.46513" lon="6.03775">
        <ele>1095</ele>
        <time>2021-09-18T11:06:26Z</time>
      </trkpt>
      <trkpt lat="46.46465" lon="6.03674">
        <ele>1094</ele>
        <time>2021-09-18T11:08:19Z</time>
      </trkpt>
      <trkpt lat="46.46411" lon="6.03577">
        <ele>1101</ele>
        <time>2021-09-18T11:10:14Z</time>
      </trkpt>
      <trkpt lat="46.46405" lon="6.03468">
        <ele>1108</ele>
        <time>2021-09-18T11:11:54Z</time>
      </trkpt>
      <trkpt lat="46.4638" lon="6.03389">
        <ele>1112</ele>
        <time>2021-09-18T11:13:14Z</time>
      </trkpt>
      <trkpt lat="46.46329" lon="6.0332">
        <ele>1116</ele>
        <time>2021-09-18T11:14:47Z</time>
      </trkpt>
      <trkpt lat="46.46296" lon="6.03236">
        <ele>1119</ele>
        <time>2021-09-18T11:16:16Z</time>
      </trkpt>
      <trkpt lat="46.46269" lon="6.03184">
        <ele>1119</ele>
        <time>2021-09-18T11:17:16Z</time>
      </trkpt>
      <trkpt lat="46.46247" lon="6.0315">
        <ele>1119</ele>
        <time>2021-09-18T11:17:59Z</time>
      </trkpt>
      <trkpt lat="46.46218" lon="6.03099">
        <ele>1117</ele>
        <time>2021-09-18T11:19:00Z</time>
      </trkpt>
      <trkpt lat="46.46218" lon="6.03067">
        <ele>1117</ele>
        <time>2021-09-18T11:19:29Z</time>
      </trkpt>
      <trkpt lat="46.46141" lon="6.02974">
        <ele>1119</ele>
        <time>2021-09-18T11:21:43Z</time>
      </trkpt>
      <trkpt lat="46.46168" lon="6.02927">
        <ele>1118</ele>
        <time>2021-09-18T11:22:39Z</time>
      </trkpt>
      <trkpt lat="46.462" lon="6.029">
        <ele>1120</ele>
        <time>2021-09-18T11:23:28Z</time>
      </trkpt>
      <trkpt lat="46.46198" lon="6.02843">
        <ele>1123</ele>
        <time>2021-09-18T11:24:21Z</time>
      </trkpt>
      <trkpt lat="46.46204" lon="6.02816">
        <ele>1126</ele>
        <time>2021-09-18T11:24:47Z</time>
      </trkpt>
      <trkpt lat="46.46196" lon="6.02811">
        <ele>1127</ele>
        <time>2021-09-18T11:24:58Z</time>
      </trkpt>
      <trkpt lat="46.46202" lon="6.0279">
        <ele>1130</ele>
        <time>2021-09-18T11:25:19Z</time>
      </trkpt>
      <trkpt lat="46.46207" lon="6.02772">
        <ele>1132</ele>
        <time>2021-09-18T11:25:37Z</time>
      </trkpt>
      <trkpt lat="46.46164" lon="6.02728">
        <ele>1141</ele>
        <time>2021-09-18T11:26:47Z</time>
      </trkpt>
      <trkpt lat="46.46182" lon="6.02642">
        <ele>1143</ele>
        <time>2021-09-18T11:28:10Z</time>
      </trkpt>
      <trkpt lat="46.462" lon="6.02613">
        <ele>1140</ele>
        <time>2021-09-18T11:28:46Z</time>
      </trkpt>
      <trkpt lat="46.46201" lon="6.02532">
        <ele>1136</ele>
        <time>2021-09-18T11:30:00Z</time>
      </trkpt>
      <trkpt lat="46.46214" lon="6.02495">
        <ele>1132</ele>
        <time>2021-09-18T11:30:39Z</time>
      </trkpt>
      <trkpt lat="46.46228" lon="6.02481">
        <ele>1128</ele>
        <time>2021-09-18T11:31:01Z</time>
      </trkpt>
      <trkpt lat="46.46229" lon="6.02436">
        <ele>1126</ele>
        <time>2021-09-18T11:31:43Z</time>
      </trkpt>
      <trkpt lat="46.46246" lon="6.02383">
        <ele>1121</ele>
        <time>2021-09-18T11:32:36Z</time>
      </trkpt>
      <trkpt lat="46.46246" lon="6.02344">
        <ele>1121</ele>
        <time>2021-09-18T11:33:12Z</time>
      </trkpt>
      <trkpt lat="46.46243" lon="6.02306">
        <ele>1125</ele>
        <time>2021-09-18T11:33:47Z</time>
      </trkpt>
      <trkpt lat="46.46251" lon="6.02256">
        <ele>1128</ele>
        <time>2021-09-18T11:34:35Z</time>
      </trkpt>
      <trkpt lat="46.46259" lon="6.02226">
        <ele>1128</ele>
        <time>2021-09-18T11:35:04Z</time>
      </trkpt>
      <trkpt lat="46.46282" lon="6.02164">
        <ele>1126</ele>
        <time>2021-09-18T11:36:09Z</time>
      </trkpt>
      <trkpt lat="46.46284" lon="6.02052">
        <ele>1129</ele>
        <time>2021-09-18T11:37:52Z</time>
      </trkpt>
    </trkseg>
  </trk>
</gpx>